sensor_id;sensor_type;location;lat;lon;timestamp;pressure;altitude;pressure_sealevel;temperature;humidity
32875;BME280;40468;42.128;24.750;2023-07-13T00:01:26;99718.50;;;27.38;45.13
32875;BME280;40468;42.128;24.750;2023-07-13T00:02:57;99721.16;;;27.38;45.39
32875;BME280;40468;42.128;24.750;2023-07-13T00:04:28;99723.84;;;27.38;45.14
32875;BME280;40468;42.128;24.750;2023-07-13T00:05:59;99717.66;;;27.38;45.00
32875;BME280;40468;42.128;24.750;2023-07-13T00:07:31;99717.88;;;27.36;45.14
32875;BME280;40468;42.128;24.750;2023-07-13T00:09:01;99715.19;;;27.36;45.47
32875;BME280;40468;42.128;24.750;2023-07-13T00:10:33;99711.84;;;27.34;45.44
32875;BME280;40468;42.128;24.750;2023-07-13T00:12:04;99712.03;;;27.33;45.60
32875;BME280;40468;42.128;24.750;2023-07-13T00:13:37;99712.22;;;27.31;45.48
32875;BME280;40468;42.128;24.750;2023-07-13T00:15:13;99707.22;;;27.28;45.75
32875;BME280;40468;42.128;24.750;2023-07-13T00:16:46;99713.56;;;27.27;45.55
32875;BME280;40468;42.128;24.750;2023-07-13T00:18:17;99704.91;;;27.25;45.43
32875;BME280;40468;42.128;24.750;2023-07-13T00:19:48;99706.94;;;27.23;45.91
32875;BME280;40468;42.128;24.750;2023-07-13T00:21:19;99710.44;;;27.23;45.98
32875;BME280;40468;42.128;24.750;2023-07-13T00:22:51;99710.44;;;27.23;45.53
32875;BME280;40468;42.128;24.750;2023-07-13T00:24:23;99707.75;;;27.23;45.51
32875;BME280;40468;42.128;24.750;2023-07-13T00:25:55;99707.94;;;27.22;45.58
32875;BME280;40468;42.128;24.750;2023-07-13T00:27:27;99707.28;;;27.20;45.58
32875;BME280;40468;42.128;24.750;2023-07-13T00:29:00;99704.63;;;27.20;45.96
32875;BME280;40468;42.128;24.750;2023-07-13T00:30:33;99710.63;;;27.22;45.58
32875;BME280;40468;42.128;24.750;2023-07-13T00:32:04;99704.44;;;27.21;45.61
32875;BME280;40468;42.128;24.750;2023-07-13T00:33:36;99703.59;;;27.21;45.75
32875;BME280;40468;42.128;24.750;2023-07-13T00:35:07;99701.94;;;27.20;45.68
32875;BME280;40468;42.128;24.750;2023-07-13T00:36:39;99704.81;;;27.18;45.71
32875;BME280;40468;42.128;24.750;2023-07-13T00:38:09;99698.81;;;27.16;46.09
32875;BME280;40468;42.128;24.750;2023-07-13T00:39:41;99695.31;;;27.16;45.72
32875;BME280;40468;42.128;24.750;2023-07-13T00:41:12;99693.63;;;27.15;46.14
32875;BME280;40468;42.128;24.750;2023-07-13T00:42:44;99690.09;;;27.14;46.05
32875;BME280;40468;42.128;24.750;2023-07-13T00:44:14;99687.59;;;27.13;46.11
32875;BME280;40468;42.128;24.750;2023-07-13T00:47:37;99691.28;;;27.12;46.14
32875;BME280;40468;42.128;24.750;2023-07-13T00:49:10;99695.78;;;27.11;46.09
32875;BME280;40468;42.128;24.750;2023-07-13T00:50:42;99688.97;;;27.09;46.19
32875;BME280;40468;42.128;24.750;2023-07-13T00:52:14;99692.66;;;27.08;46.06
32875;BME280;40468;42.128;24.750;2023-07-13T00:53:45;99695.31;;;27.08;46.22
32875;BME280;40468;42.128;24.750;2023-07-13T00:55:17;99690.50;;;27.03;46.06
32875;BME280;40468;42.128;24.750;2023-07-13T00:56:48;99698.66;;;27.10;45.93
32875;BME280;40468;42.128;24.750;2023-07-13T00:58:21;99698.00;;;27.08;46.01
32875;BME280;40468;42.128;24.750;2023-07-13T00:59:53;99693.66;;;27.07;45.87
32875;BME280;40468;42.128;24.750;2023-07-13T01:01:24;99693.66;;;27.07;45.96
32875;BME280;40468;42.128;24.750;2023-07-13T01:02:57;99693.00;;;27.05;45.95
32875;BME280;40468;42.128;24.750;2023-07-13T01:04:28;99688.38;;;26.98;46.25
32875;BME280;40468;42.128;24.750;2023-07-13T01:06:00;99687.25;;;26.93;46.29
32875;BME280;40468;42.128;24.750;2023-07-13T01:07:31;99689.59;;;26.88;46.40
32875;BME280;40468;42.128;24.750;2023-07-13T01:09:02;99679.28;;;26.85;46.62
32875;BME280;40468;42.128;24.750;2023-07-13T01:10:33;99677.44;;;26.85;46.29
32875;BME280;40468;42.128;24.750;2023-07-13T01:12:08;99682.31;;;26.82;46.24
32875;BME280;40468;42.128;24.750;2023-07-13T01:13:40;99678.16;;;26.79;46.83
32875;BME280;40468;42.128;24.750;2023-07-13T01:16:57;99671.50;;;26.75;46.75
32875;BME280;40468;42.128;24.750;2023-07-13T01:18:32;99677.66;;;26.75;46.51
32875;BME280;40468;42.128;24.750;2023-07-13T01:20:02;99675.19;;;26.74;46.55
32875;BME280;40468;42.128;24.750;2023-07-13T01:21:36;99682.34;;;26.73;46.71
32875;BME280;40468;42.128;24.750;2023-07-13T01:23:12;99676.38;;;26.71;46.81
32875;BME280;40468;42.128;24.750;2023-07-13T01:24:45;99679.56;;;26.67;46.88
32875;BME280;40468;42.128;24.750;2023-07-13T01:26:17;99670.88;;;26.65;46.92
32875;BME280;40468;42.128;24.750;2023-07-13T01:27:48;99678.91;;;26.65;46.83
32875;BME280;40468;42.128;24.750;2023-07-13T01:29:20;99678.75;;;26.66;46.50
32875;BME280;40468;42.128;24.750;2023-07-13T01:30:52;99678.53;;;26.68;46.69
32875;BME280;40468;42.128;24.750;2023-07-13T01:32:23;99681.22;;;26.68;46.37
32875;BME280;40468;42.128;24.750;2023-07-13T01:33:55;99677.56;;;26.69;46.39
32875;BME280;40468;42.128;24.750;2023-07-13T01:35:27;99676.72;;;26.68;46.61
32875;BME280;40468;42.128;24.750;2023-07-13T01:37:00;99682.91;;;26.69;46.31
32875;BME280;40468;42.128;24.750;2023-07-13T01:38:31;99678.38;;;26.69;46.49
32875;BME280;40468;42.128;24.750;2023-07-13T01:40:03;99675.03;;;26.67;46.75
32875;BME280;40468;42.128;24.750;2023-07-13T01:41:34;99675.25;;;26.66;46.34
32875;BME280;40468;42.128;24.750;2023-07-13T01:43:06;99672.72;;;26.64;46.73
32875;BME280;40468;42.128;24.750;2023-07-13T01:44:36;99679.09;;;26.63;46.45
32875;BME280;40468;42.128;24.750;2023-07-13T01:46:08;99676.78;;;26.60;46.85
32875;BME280;40468;42.128;24.750;2023-07-13T01:47:40;99681.44;;;26.58;46.90
32875;BME280;40468;42.128;24.750;2023-07-13T01:49:10;99679.13;;;26.55;46.87
32875;BME280;40468;42.128;24.750;2023-07-13T01:50:42;99679.31;;;26.53;47.00
32875;BME280;40468;42.128;24.750;2023-07-13T01:52:14;99680.31;;;26.52;46.76
32875;BME280;40468;42.128;24.750;2023-07-13T01:53:46;99682.97;;;26.52;47.06
32875;BME280;40468;42.128;24.750;2023-07-13T01:55:16;99680.50;;;26.51;46.81
32875;BME280;40468;42.128;24.750;2023-07-13T01:56:48;99685.00;;;26.50;47.15
32875;BME280;40468;42.128;24.750;2023-07-13T01:58:19;99687.69;;;26.50;47.01
32875;BME280;40468;42.128;24.750;2023-07-13T01:59:50;99695.00;;;26.48;47.25
32875;BME280;40468;42.128;24.750;2023-07-13T02:01:21;99696.16;;;26.46;46.90
32875;BME280;40468;42.128;24.750;2023-07-13T02:02:53;99693.34;;;26.47;46.77
32875;BME280;40468;42.128;24.750;2023-07-13T02:04:23;99683.53;;;26.40;47.17
32875;BME280;40468;42.128;24.750;2023-07-13T02:05:55;99695.00;;;26.48;46.72
32875;BME280;40468;42.128;24.750;2023-07-13T02:07:27;99697.66;;;26.48;46.67
32875;BME280;40468;42.128;24.750;2023-07-13T02:08:59;99693.16;;;26.49;46.95
32875;BME280;40468;42.128;24.750;2023-07-13T02:10:30;99694.31;;;26.46;46.73
32875;BME280;40468;42.128;24.750;2023-07-13T02:12:02;99692.84;;;26.44;46.63
32875;BME280;40468;42.128;24.750;2023-07-13T02:13:33;99699.53;;;26.40;46.92
32875;BME280;40468;42.128;24.750;2023-07-13T02:15:05;99704.41;;;26.36;47.33
32875;BME280;40468;42.128;24.750;2023-07-13T02:16:36;99703.41;;;26.29;47.54
32875;BME280;40468;42.128;24.750;2023-07-13T02:18:08;99697.13;;;26.22;47.71
32875;BME280;40468;42.128;24.750;2023-07-13T02:19:38;99710.63;;;26.20;47.66
32875;BME280;40468;42.128;24.750;2023-07-13T02:21:10;99704.44;;;26.20;47.37
32875;BME280;40468;42.128;24.750;2023-07-13T02:22:43;99706.63;;;26.16;47.68
32875;BME280;40468;42.128;24.750;2023-07-13T02:24:13;99703.50;;;26.13;47.76
32875;BME280;40468;42.128;24.750;2023-07-13T02:25:47;99705.84;;;26.07;47.65
32875;BME280;40468;42.128;24.750;2023-07-13T02:27:18;99721.16;;;26.05;47.88
32875;BME280;40468;42.128;24.750;2023-07-13T02:28:50;99716.84;;;26.04;47.82
32875;BME280;40468;42.128;24.750;2023-07-13T02:30:22;99720.03;;;26.00;48.24
32875;BME280;40468;42.128;24.750;2023-07-13T02:31:54;99718.03;;;25.94;48.47
32875;BME280;40468;42.128;24.750;2023-07-13T02:33:25;99716.88;;;25.88;48.81
32875;BME280;40468;42.128;24.750;2023-07-13T02:34:56;99717.56;;;25.82;48.88
32875;BME280;40468;42.128;24.750;2023-07-13T02:36:28;99723.38;;;25.77;49.01
32875;BME280;40468;42.128;24.750;2023-07-13T02:38:00;99727.03;;;25.76;48.91
32875;BME280;40468;42.128;24.750;2023-07-13T02:39:32;99728.72;;;25.77;48.91
32875;BME280;40468;42.128;24.750;2023-07-13T02:41:03;99720.03;;;25.75;48.80
32875;BME280;40468;42.128;24.750;2023-07-13T02:42:34;99722.03;;;25.73;48.73
32875;BME280;40468;42.128;24.750;2023-07-13T02:44:05;99725.03;;;25.70;49.13
32875;BME280;40468;42.128;24.750;2023-07-13T02:45:38;99726.41;;;25.66;49.25
32875;BME280;40468;42.128;24.750;2023-07-13T02:47:09;99721.25;;;25.64;49.00
32875;BME280;40468;42.128;24.750;2023-07-13T02:48:41;99717.91;;;25.62;49.19
32875;BME280;40468;42.128;24.750;2023-07-13T02:50:11;99716.91;;;25.63;49.02
32875;BME280;40468;42.128;24.750;2023-07-13T02:51:43;99719.56;;;25.63;48.78
32875;BME280;40468;42.128;24.750;2023-07-13T02:53:15;99722.75;;;25.59;48.88
32875;BME280;40468;42.128;24.750;2023-07-13T02:54:47;99722.22;;;25.55;49.04
32875;BME280;40468;42.128;24.750;2023-07-13T02:56:17;99729.59;;;25.53;49.40
32875;BME280;40468;42.128;24.750;2023-07-13T02:57:49;99727.91;;;25.52;49.36
32875;BME280;40468;42.128;24.750;2023-07-13T02:59:21;99728.06;;;25.51;48.99
32875;BME280;40468;42.128;24.750;2023-07-13T03:00:51;99735.75;;;25.54;49.17
32875;BME280;40468;42.128;24.750;2023-07-13T03:02:23;99738.06;;;25.57;48.75
32875;BME280;40468;42.128;24.750;2023-07-13T03:03:54;99735.75;;;25.54;48.74
32875;BME280;40468;42.128;24.750;2023-07-13T03:05:26;99733.22;;;25.52;49.08
32875;BME280;40468;42.128;24.750;2023-07-13T03:06:56;99727.41;;;25.49;49.18
32875;BME280;40468;42.128;24.750;2023-07-13T03:08:29;99725.56;;;25.49;49.25
32875;BME280;40468;42.128;24.750;2023-07-13T03:10:00;99724.75;;;25.49;48.79
32875;BME280;40468;42.128;24.750;2023-07-13T03:11:32;99733.22;;;25.52;48.91
32875;BME280;40468;42.128;24.750;2023-07-13T03:13:02;99726.72;;;25.55;48.80
32875;BME280;40468;42.128;24.750;2023-07-13T03:14:34;99731.72;;;25.58;48.50
32875;BME280;40468;42.128;24.750;2023-07-13T03:16:06;99730.75;;;25.59;48.38
32875;BME280;40468;42.128;24.750;2023-07-13T03:17:37;99725.22;;;25.60;48.61
32875;BME280;40468;42.128;24.750;2023-07-13T03:19:08;99724.91;;;25.63;48.62
32875;BME280;40468;42.128;24.750;2023-07-13T03:20:39;99733.56;;;25.65;48.58
32875;BME280;40468;42.128;24.750;2023-07-13T03:22:11;99729.75;;;25.68;48.57
32875;BME280;40468;42.128;24.750;2023-07-13T03:23:44;99725.91;;;25.71;48.40
32875;BME280;40468;42.128;24.750;2023-07-13T03:25:15;99730.22;;;25.72;48.38
32875;BME280;40468;42.128;24.750;2023-07-13T03:26:46;99718.53;;;25.73;48.30
32875;BME280;40468;42.128;24.750;2023-07-13T03:28:17;99721.22;;;25.73;48.26
32875;BME280;40468;42.128;24.750;2023-07-13T03:29:48;99726.25;;;25.68;48.48
32875;BME280;40468;42.128;24.750;2023-07-13T03:31:20;99716.91;;;25.63;48.45
32875;BME280;40468;42.128;24.750;2023-07-13T03:32:52;99714.75;;;25.59;48.50
32875;BME280;40468;42.128;24.750;2023-07-13T03:34:22;99717.91;;;25.54;48.59
32875;BME280;40468;42.128;24.750;2023-07-13T03:35:54;99708.25;;;25.53;48.69
32875;BME280;40468;42.128;24.750;2023-07-13T03:37:24;99718.09;;;25.53;48.80
32875;BME280;40468;42.128;24.750;2023-07-13T03:38:58;99718.25;;;25.51;48.72
32875;BME280;40468;42.128;24.750;2023-07-13T03:40:29;99713.25;;;25.48;49.02
32875;BME280;40468;42.128;24.750;2023-07-13T03:42:01;99718.09;;;25.45;49.00
32875;BME280;40468;42.128;24.750;2023-07-13T03:43:32;99722.75;;;25.42;49.36
32875;BME280;40468;42.128;24.750;2023-07-13T03:45:03;99714.94;;;25.41;49.33
32875;BME280;40468;42.128;24.750;2023-07-13T03:46:35;99717.75;;;25.39;49.26
32875;BME280;40468;42.128;24.750;2023-07-13T03:48:07;99717.41;;;25.34;49.35
32875;BME280;40468;42.128;24.750;2023-07-13T03:49:37;99723.06;;;25.31;49.55
32875;BME280;40468;42.128;24.750;2023-07-13T03:51:09;99719.09;;;25.27;50.03
32875;BME280;40468;42.128;24.750;2023-07-13T03:52:40;99718.41;;;25.25;49.94
32875;BME280;40468;42.128;24.750;2023-07-13T03:54:13;99712.25;;;25.25;49.78
32875;BME280;40468;42.128;24.750;2023-07-13T03:55:43;99719.56;;;25.23;50.20
32875;BME280;40468;42.128;24.750;2023-07-13T03:57:15;99718.06;;;25.20;50.00
32875;BME280;40468;42.128;24.750;2023-07-13T03:58:48;99723.56;;;25.18;50.39
32875;BME280;40468;42.128;24.750;2023-07-13T04:00:20;99729.91;;;25.17;50.31
32875;BME280;40468;42.128;24.750;2023-07-13T04:01:52;99722.06;;;25.16;50.15
32875;BME280;40468;42.128;24.750;2023-07-13T04:03:24;99727.41;;;25.16;50.43
32875;BME280;40468;42.128;24.750;2023-07-13T04:04:54;99726.38;;;25.17;50.22
32875;BME280;40468;42.128;24.750;2023-07-13T04:06:26;99727.25;;;25.17;50.24
32875;BME280;40468;42.128;24.750;2023-07-13T04:07:59;99732.25;;;25.21;49.75
32875;BME280;40468;42.128;24.750;2023-07-13T04:09:31;99730.75;;;25.26;49.83
32875;BME280;40468;42.128;24.750;2023-07-13T04:11:03;99725.91;;;25.30;49.79
32875;BME280;40468;42.128;24.750;2023-07-13T04:12:34;99729.56;;;25.37;49.67
32875;BME280;40468;42.128;24.750;2023-07-13T04:14:05;99734.41;;;25.41;49.31
32875;BME280;40468;42.128;24.750;2023-07-13T04:15:36;99732.25;;;25.45;49.39
32875;BME280;40468;42.128;24.750;2023-07-13T04:17:08;99735.25;;;25.50;49.31
32875;BME280;40468;42.128;24.750;2023-07-13T04:18:39;99730.56;;;25.52;49.10
32875;BME280;40468;42.128;24.750;2023-07-13T04:20:11;99732.06;;;25.55;49.19
32875;BME280;40468;42.128;24.750;2023-07-13T04:21:42;99739.56;;;25.59;49.02
32875;BME280;40468;42.128;24.750;2023-07-13T04:23:14;99738.22;;;25.63;49.03
32875;BME280;40468;42.128;24.750;2023-07-13T04:24:46;99738.56;;;25.69;49.03
32875;BME280;40468;42.128;24.750;2023-07-13T04:26:18;99734.72;;;25.71;48.83
32875;BME280;40468;42.128;24.750;2023-07-13T04:27:52;99737.88;;;25.75;48.62
32875;BME280;40468;42.128;24.750;2023-07-13T04:29:23;99741.22;;;25.77;48.60
32875;BME280;40468;42.128;24.750;2023-07-13T04:30:55;99745.41;;;25.79;48.69
32875;BME280;40468;42.128;24.750;2023-07-13T04:32:26;99744.38;;;25.80;48.61
32875;BME280;40468;42.128;24.750;2023-07-13T04:33:57;99744.09;;;25.83;48.48
32875;BME280;40468;42.128;24.750;2023-07-13T04:35:28;99741.22;;;25.85;48.77
32875;BME280;40468;42.128;24.750;2023-07-13T04:36:59;99745.41;;;25.87;48.69
32875;BME280;40468;42.128;24.750;2023-07-13T04:38:30;99744.22;;;25.90;48.42
32875;BME280;40468;42.128;24.750;2023-07-13T04:40:04;99750.91;;;25.94;48.22
32875;BME280;40468;42.128;24.750;2023-07-13T04:41:35;99747.91;;;25.97;48.49
32875;BME280;40468;42.128;24.750;2023-07-13T04:43:06;99749.22;;;26.01;48.13
32875;BME280;40468;42.128;24.750;2023-07-13T04:44:37;99746.19;;;26.04;48.42
32875;BME280;40468;42.128;24.750;2023-07-13T04:46:10;99753.03;;;26.07;48.46
32875;BME280;40468;42.128;24.750;2023-07-13T04:47:41;99746.53;;;26.09;48.33
32875;BME280;40468;42.128;24.750;2023-07-13T04:49:13;99748.84;;;26.13;48.37
32875;BME280;40468;42.128;24.750;2023-07-13T04:50:43;99756.53;;;26.16;48.01
32875;BME280;40468;42.128;24.750;2023-07-13T04:52:15;99754.53;;;26.18;47.91
32875;BME280;40468;42.128;24.750;2023-07-13T04:53:46;99761.19;;;26.22;47.98
32875;BME280;40468;42.128;24.750;2023-07-13T04:55:19;99751.81;;;26.26;48.19
32875;BME280;40468;42.128;24.750;2023-07-13T04:56:49;99758.31;;;26.31;48.04
32875;BME280;40468;42.128;24.750;2023-07-13T04:58:21;99755.13;;;26.36;47.66
32875;BME280;40468;42.128;24.750;2023-07-13T04:59:52;99744.09;;;26.39;47.97
32875;BME280;40468;42.128;24.750;2023-07-13T05:01:24;99745.59;;;26.42;47.79
32875;BME280;40468;42.128;24.750;2023-07-13T05:02:59;99746.91;;;26.46;47.83
32875;BME280;40468;42.128;24.750;2023-07-13T05:04:31;99752.59;;;26.51;47.43
32875;BME280;40468;42.128;24.750;2023-07-13T05:06:03;99750.41;;;26.54;47.56
32875;BME280;40468;42.128;24.750;2023-07-13T05:07:35;99753.56;;;26.58;47.59
32875;BME280;40468;42.128;24.750;2023-07-13T05:09:05;99752.03;;;26.64;47.08
32875;BME280;40468;42.128;24.750;2023-07-13T05:10:40;99751.53;;;26.68;47.44
32875;BME280;40468;42.128;24.750;2023-07-13T05:12:11;99754.47;;;26.73;47.24
32875;BME280;40468;42.128;24.750;2023-07-13T05:13:43;99755.97;;;26.76;47.12
32875;BME280;40468;42.128;24.750;2023-07-13T05:15:14;99761.16;;;26.77;46.92
32875;BME280;40468;42.128;24.750;2023-07-13T05:16:46;99765.66;;;26.77;47.12
32875;BME280;40468;42.128;24.750;2023-07-13T05:18:17;99761.84;;;26.71;47.33
32875;BME280;40468;42.128;24.750;2023-07-13T05:19:48;99757.22;;;26.65;47.87
32875;BME280;40468;42.128;24.750;2023-07-13T05:21:19;99756.69;;;26.62;47.93
32875;BME280;40468;42.128;24.750;2023-07-13T05:22:51;99756.41;;;26.57;47.87
32875;BME280;40468;42.128;24.750;2023-07-13T05:24:22;99762.75;;;26.55;48.12
32875;BME280;40468;42.128;24.750;2023-07-13T05:25:55;99755.75;;;26.54;47.89
32875;BME280;40468;42.128;24.750;2023-07-13T05:27:26;99754.56;;;26.57;48.16
32875;BME280;40468;42.128;24.750;2023-07-13T05:28:57;99761.22;;;26.61;48.10
32875;BME280;40468;42.128;24.750;2023-07-13T05:30:28;99762.56;;;26.65;47.80
32875;BME280;40468;42.128;24.750;2023-07-13T05:32:00;99765.50;;;26.70;47.83
32875;BME280;40468;42.128;24.750;2023-07-13T05:33:32;99756.16;;;26.74;47.50
32875;BME280;40468;42.128;24.750;2023-07-13T05:35:02;99759.31;;;26.78;47.64
32875;BME280;40468;42.128;24.750;2023-07-13T05:36:34;99759.31;;;26.78;47.81
32875;BME280;40468;42.128;24.750;2023-07-13T05:38:05;99756.28;;;26.81;47.48
32875;BME280;40468;42.128;24.750;2023-07-13T05:39:36;99755.75;;;26.86;47.40
32875;BME280;40468;42.128;24.750;2023-07-13T05:41:10;99762.22;;;26.91;47.26
32875;BME280;40468;42.128;24.750;2023-07-13T05:42:40;99760.53;;;26.98;47.19
32875;BME280;40468;42.128;24.750;2023-07-13T05:44:12;99761.84;;;27.03;47.05
32875;BME280;40468;42.128;24.750;2023-07-13T05:45:42;99766.66;;;27.07;47.15
32875;BME280;40468;42.128;24.750;2023-07-13T05:47:14;99761.31;;;27.07;47.38
32875;BME280;40468;42.128;24.750;2023-07-13T05:48:45;99760.97;;;27.10;47.09
32875;BME280;40468;42.128;24.750;2023-07-13T05:50:17;99759.78;;;27.13;47.48
32875;BME280;40468;42.128;24.750;2023-07-13T05:51:49;99756.91;;;27.14;47.47
32875;BME280;40468;42.128;24.750;2023-07-13T05:53:21;99754.75;;;27.18;47.07
32875;BME280;40468;42.128;24.750;2023-07-13T05:54:51;99754.03;;;27.24;46.94
32875;BME280;40468;42.128;24.750;2023-07-13T05:56:24;99758.69;;;27.30;47.11
32875;BME280;40468;42.128;24.750;2023-07-13T05:57:56;99761.47;;;27.37;46.74
32875;BME280;40468;42.128;24.750;2023-07-13T05:59:28;99762.97;;;27.39;46.95
32875;BME280;40468;42.128;24.750;2023-07-13T06:01:00;99756.22;;;27.43;47.05
32875;BME280;40468;42.128;24.750;2023-07-13T06:02:31;99756.53;;;27.49;46.90
32875;BME280;40468;42.128;24.750;2023-07-13T06:04:03;99758.50;;;27.55;46.99
32875;BME280;40468;42.128;24.750;2023-07-13T06:05:35;99754.91;;;27.62;46.75
32875;BME280;40468;42.128;24.750;2023-07-13T06:07:07;99758.22;;;27.64;46.76
32875;BME280;40468;42.128;24.750;2023-07-13T06:08:38;99761.56;;;27.66;46.57
32875;BME280;40468;42.128;24.750;2023-07-13T06:10:09;99761.19;;;27.70;46.50
32875;BME280;40468;42.128;24.750;2023-07-13T06:11:43;99764.16;;;27.75;46.44
32875;BME280;40468;42.128;24.750;2023-07-13T06:13:15;99765.28;;;27.80;46.29
32875;BME280;40468;42.128;24.750;2023-07-13T06:14:45;99768.94;;;27.87;46.55
32875;BME280;40468;42.128;24.750;2023-07-13T06:16:17;99765.81;;;27.99;46.40
32875;BME280;40468;42.128;24.750;2023-07-13T06:17:48;99774.22;;;28.10;45.95
32875;BME280;40468;42.128;24.750;2023-07-13T06:19:20;99766.06;;;28.19;45.81
32875;BME280;40468;42.128;24.750;2023-07-13T06:20:50;99752.53;;;28.20;45.85
32875;BME280;40468;42.128;24.750;2023-07-13T06:22:22;99761.56;;;28.34;45.84
32875;BME280;40468;42.128;24.750;2023-07-13T06:23:54;99752.63;;;28.42;45.32
32875;BME280;40468;42.128;24.750;2023-07-13T06:25:25;99756.25;;;28.49;45.46
32875;BME280;40468;42.128;24.750;2023-07-13T06:26:59;99752.81;;;28.55;45.22
32875;BME280;40468;42.128;24.750;2023-07-13T06:28:30;99761.75;;;28.62;45.26
32875;BME280;40468;42.128;24.750;2023-07-13T06:30:01;99761.81;;;28.69;45.08
32875;BME280;40468;42.128;24.750;2023-07-13T06:31:33;99765.59;;;28.74;44.99
32875;BME280;40468;42.128;24.750;2023-07-13T06:33:04;99749.81;;;28.79;44.95
32875;BME280;40468;42.128;24.750;2023-07-13T06:34:36;99759.97;;;28.84;44.41
32875;BME280;40468;42.128;24.750;2023-07-13T06:36:07;99752.38;;;28.88;44.62
32875;BME280;40468;42.128;24.750;2023-07-13T06:37:39;99752.63;;;28.93;44.46
32875;BME280;40468;42.128;24.750;2023-07-13T06:39:10;99753.47;;;28.93;44.30
32875;BME280;40468;42.128;24.750;2023-07-13T06:40:42;99749.09;;;28.92;44.08
32875;BME280;40468;42.128;24.750;2023-07-13T06:42:15;99746.91;;;28.96;44.18
32875;BME280;40468;42.128;24.750;2023-07-13T06:43:47;99743.50;;;29.02;43.84
32875;BME280;40468;42.128;24.750;2023-07-13T06:45:19;99743.34;;;29.10;43.66
32875;BME280;40468;42.128;24.750;2023-07-13T06:46:49;99736.38;;;29.16;43.56
32875;BME280;40468;42.128;24.750;2023-07-13T06:48:21;99736.66;;;29.21;43.43
32875;BME280;40468;42.128;24.750;2023-07-13T06:49:52;99740.03;;;29.30;43.56
32875;BME280;40468;42.128;24.750;2023-07-13T06:51:24;99744.47;;;29.37;43.18
32875;BME280;40468;42.128;24.750;2023-07-13T06:52:56;99744.13;;;29.47;43.11
32875;BME280;40468;42.128;24.750;2023-07-13T06:54:26;99729.28;;;29.51;43.30
32875;BME280;40468;42.128;24.750;2023-07-13T06:55:58;99741.44;;;29.68;43.11
32875;BME280;40468;42.128;24.750;2023-07-13T06:57:31;99743.97;;;29.77;42.68
32875;BME280;40468;42.128;24.750;2023-07-13T06:59:02;99739.47;;;29.84;42.50
32875;BME280;40468;42.128;24.750;2023-07-13T07:00:34;99745.34;;;29.94;42.73
32875;BME280;40468;42.128;24.750;2023-07-13T07:02:05;99740.81;;;30.01;42.29
32875;BME280;40468;42.128;24.750;2023-07-13T07:03:36;99742.53;;;30.09;42.28
32875;BME280;40468;42.128;24.750;2023-07-13T07:05:08;99739.88;;;30.15;42.10
32875;BME280;40468;42.128;24.750;2023-07-13T07:06:39;99737.63;;;30.19;42.14
32875;BME280;40468;42.128;24.750;2023-07-13T07:08:11;99743.28;;;30.24;41.80
32875;BME280;40468;42.128;24.750;2023-07-13T07:09:41;99741.66;;;30.30;41.89
32875;BME280;40468;42.128;24.750;2023-07-13T07:11:14;99745.19;;;30.37;41.77
32875;BME280;40468;42.128;24.750;2023-07-13T07:12:46;99745.22;;;30.44;41.63
32875;BME280;40468;42.128;24.750;2023-07-13T07:14:18;99743.41;;;30.51;41.51
32875;BME280;40468;42.128;24.750;2023-07-13T07:15:49;99728.09;;;30.51;41.57
32875;BME280;40468;42.128;24.750;2023-07-13T07:17:21;99743.25;;;30.66;41.23
32875;BME280;40468;42.128;24.750;2023-07-13T07:18:52;99730.03;;;30.71;41.06
32875;BME280;40468;42.128;24.750;2023-07-13T07:20:24;99730.06;;;30.77;41.09
32875;BME280;40468;42.128;24.750;2023-07-13T07:21:54;99733.00;;;30.82;40.76
32875;BME280;40468;42.128;24.750;2023-07-13T07:23:26;99733.03;;;30.89;40.80
32875;BME280;40468;42.128;24.750;2023-07-13T07:24:57;99739.22;;;30.96;40.80
32875;BME280;40468;42.128;24.750;2023-07-13T07:26:29;99738.22;;;31.04;40.49
32875;BME280;40468;42.128;24.750;2023-07-13T07:28:02;99737.19;;;31.12;40.35
32875;BME280;40468;42.128;24.750;2023-07-13T07:29:33;99728.09;;;31.19;40.27
32875;BME280;40468;42.128;24.750;2023-07-13T07:31:05;99734.09;;;31.28;40.21
32875;BME280;40468;42.128;24.750;2023-07-13T07:32:37;99733.94;;;31.36;39.87
32875;BME280;40468;42.128;24.750;2023-07-13T07:34:07;99736.22;;;31.46;39.86
32875;BME280;40468;42.128;24.750;2023-07-13T07:35:39;99728.78;;;31.55;39.40
32875;BME280;40468;42.128;24.750;2023-07-13T07:37:10;99733.53;;;31.59;39.49
32875;BME280;40468;42.128;24.750;2023-07-13T07:38:42;99731.03;;;31.64;39.69
32875;BME280;40468;42.128;24.750;2023-07-13T07:40:14;99730.41;;;31.76;39.18
32875;BME280;40468;42.128;24.750;2023-07-13T07:41:46;99725.84;;;31.89;39.19
32875;BME280;40468;42.128;24.750;2023-07-13T07:43:18;99726.06;;;32.01;38.99
32875;BME280;40468;42.128;24.750;2023-07-13T07:44:50;99722.91;;;32.11;38.99
32875;BME280;40468;42.128;24.750;2023-07-13T07:46:21;99728.06;;;32.19;39.01
32875;BME280;40468;42.128;24.750;2023-07-13T07:47:53;99728.03;;;32.32;38.63
32875;BME280;40468;42.128;24.750;2023-07-13T07:49:29;99725.09;;;32.47;38.46
32875;BME280;40468;42.128;24.750;2023-07-13T07:51:00;99720.69;;;32.59;38.24
32875;BME280;40468;42.128;24.750;2023-07-13T07:52:31;99725.00;;;32.67;38.10
32875;BME280;40468;42.128;24.750;2023-07-13T07:54:03;99732.66;;;32.70;37.85
32875;BME280;40468;42.128;24.750;2023-07-13T07:55:34;99724.13;;;32.73;37.71
32875;BME280;40468;42.128;24.750;2023-07-13T07:57:06;99726.78;;;32.80;37.60
32875;BME280;40468;42.128;24.750;2023-07-13T07:58:39;99725.50;;;32.89;37.25
32875;BME280;40468;42.128;24.750;2023-07-13T08:00:11;99727.13;;;32.97;37.50
32875;BME280;40468;42.128;24.750;2023-07-13T08:01:42;99724.81;;;33.07;37.40
32875;BME280;40468;42.128;24.750;2023-07-13T08:03:16;99715.41;;;33.16;37.27